sensor_id;sensor_type;location;lat;lon;timestamp;P1;durP1;ratioP1;P2;durP2;ratioP2
26504;SDS011;19493;48.042;7.584;2024-01-11T00:00:34;136.82;;;32.35;;
26504;SDS011;19493;48.042;7.584;2024-01-11T00:02:59;142.93;;;31.35;;
26504;SDS011;19493;48.042;7.584;2024-01-11T00:05:25;137.02;;;31.05;;
26504;SDS011;19493;48.042;7.584;2024-01-11T00:07:50;133.60;;;30.45;;
26504;SDS011;19493;48.042;7.584;2024-01-11T00:10:16;133.38;;;30.42;;
26504;SDS011;19493;48.042;7.584;2024-01-11T00:12:42;137.50;;;31.40;;
26504;SDS011;19493;48.042;7.584;2024-01-11T00:15:08;136.93;;;31.42;;
26504;SDS011;19493;48.042;7.584;2024-01-11T00:17:33;130.60;;;28.95;;
26504;SDS011;19493;48.042;7.584;2024-01-11T00:19:59;149.80;;;30.25;;
26504;SDS011;19493;48.042;7.584;2024-01-11T00:22:25;120.38;;;28.10;;
26504;SDS011;19493;48.042;7.584;2024-01-11T00:24:51;141.63;;;29.35;;
26504;SDS011;19493;48.042;7.584;2024-01-11T00:27:16;140.05;;;27.40;;
26504;SDS011;19493;48.042;7.584;2024-01-11T00:29:42;130.55;;;27.38;;
26504;SDS011;19493;48.042;7.584;2024-01-11T00:32:07;122.75;;;30.35;;
26504;SDS011;19493;48.042;7.584;2024-01-11T00:34:33;127.07;;;29.35;;
26504;SDS011;19493;48.042;7.584;2024-01-11T00:36:58;144.00;;;32.05;;
26504;SDS011;19493;48.042;7.584;2024-01-11T00:39:24;136.05;;;30.58;;
26504;SDS011;19493;48.042;7.584;2024-01-11T00:41:49;115.68;;;28.30;;
26504;SDS011;19493;48.042;7.584;2024-01-11T00:44:16;139.18;;;28.42;;
26504;SDS011;19493;48.042;7.584;2024-01-11T00:46:41;135.98;;;28.48;;
26504;SDS011;19493;48.042;7.584;2024-01-11T00:49:07;148.43;;;30.17;;
26504;SDS011;19493;48.042;7.584;2024-01-11T00:51:33;136.05;;;28.70;;
26504;SDS011;19493;48.042;7.584;2024-01-11T00:53:58;142.45;;;28.08;;
26504;SDS011;19493;48.042;7.584;2024-01-11T00:56:24;123.25;;;29.83;;
26504;SDS011;19493;48.042;7.584;2024-01-11T00:58:50;140.18;;;30.25;;
26504;SDS011;19493;48.042;7.584;2024-01-11T01:01:16;127.35;;;27.77;;
26504;SDS011;19493;48.042;7.584;2024-01-11T01:03:41;109.38;;;27.95;;
26504;SDS011;19493;48.042;7.584;2024-01-11T01:06:07;145.15;;;31.13;;
26504;SDS011;19493;48.042;7.584;2024-01-11T01:08:33;126.07;;;28.98;;
26504;SDS011;19493;48.042;7.584;2024-01-11T01:10:58;121.97;;;27.73;;
26504;SDS011;19493;48.042;7.584;2024-01-11T01:13:24;129.45;;;30.63;;
26504;SDS011;19493;48.042;7.584;2024-01-11T01:15:50;130.30;;;27.35;;
26504;SDS011;19493;48.042;7.584;2024-01-11T01:18:15;118.82;;;29.30;;
26504;SDS011;19493;48.042;7.584;2024-01-11T01:20:41;119.50;;;27.23;;
26504;SDS011;19493;48.042;7.584;2024-01-11T01:23:06;154.38;;;30.88;;
26504;SDS011;19493;48.042;7.584;2024-01-11T01:25:32;142.00;;;29.80;;
26504;SDS011;19493;48.042;7.584;2024-01-11T01:27:57;142.13;;;29.00;;
26504;SDS011;19493;48.042;7.584;2024-01-11T01:30:24;140.80;;;28.90;;
26504;SDS011;19493;48.042;7.584;2024-01-11T01:32:50;122.07;;;30.15;;
26504;SDS011;19493;48.042;7.584;2024-01-11T01:35:15;136.70;;;27.05;;
26504;SDS011;19493;48.042;7.584;2024-01-11T01:37:41;145.75;;;28.48;;
26504;SDS011;19493;48.042;7.584;2024-01-11T01:40:07;142.82;;;28.05;;
26504;SDS011;19493;48.042;7.584;2024-01-11T01:42:34;148.90;;;28.63;;
26504;SDS011;19493;48.042;7.584;2024-01-11T01:44:59;135.68;;;29.17;;
26504;SDS011;19493;48.042;7.584;2024-01-11T01:47:25;142.85;;;27.85;;
26504;SDS011;19493;48.042;7.584;2024-01-11T01:49:52;122.25;;;27.88;;
26504;SDS011;19493;48.042;7.584;2024-01-11T01:52:19;115.72;;;26.88;;
26504;SDS011;19493;48.042;7.584;2024-01-11T01:54:46;128.88;;;27.80;;
26504;SDS011;19493;48.042;7.584;2024-01-11T01:57:13;148.95;;;28.30;;
26504;SDS011;19493;48.042;7.584;2024-01-11T01:59:40;131.95;;;26.83;;
26504;SDS011;19493;48.042;7.584;2024-01-11T02:02:08;122.78;;;29.17;;
26504;SDS011;19493;48.042;7.584;2024-01-11T02:04:35;136.52;;;30.05;;
26504;SDS011;19493;48.042;7.584;2024-01-11T02:07:01;131.40;;;29.08;;
26504;SDS011;19493;48.042;7.584;2024-01-11T02:09:27;132.35;;;28.67;;
26504;SDS011;19493;48.042;7.584;2024-01-11T02:11:53;129.52;;;29.23;;
26504;SDS011;19493;48.042;7.584;2024-01-11T02:14:19;150.98;;;31.52;;
26504;SDS011;19493;48.042;7.584;2024-01-11T02:16:45;134.52;;;30.80;;
26504;SDS011;19493;48.042;7.584;2024-01-11T02:19:12;139.35;;;29.25;;
26504;SDS011;19493;48.042;7.584;2024-01-11T02:21:40;119.25;;;29.90;;
26504;SDS011;19493;48.042;7.584;2024-01-11T02:24:11;145.75;;;29.48;;
26504;SDS011;19493;48.042;7.584;2024-01-11T02:26:36;125.10;;;28.70;;
26504;SDS011;19493;48.042;7.584;2024-01-11T02:29:22;148.32;;;29.02;;
26504;SDS011;19493;48.042;7.584;2024-01-11T02:31:48;110.22;;;28.60;;
26504;SDS011;19493;48.042;7.584;2024-01-11T02:34:13;124.85;;;28.15;;
26504;SDS011;19493;48.042;7.584;2024-01-11T02:36:39;139.07;;;27.45;;
26504;SDS011;19493;48.042;7.584;2024-01-11T02:39:05;133.82;;;29.20;;
26504;SDS011;19493;48.042;7.584;2024-01-11T02:41:31;119.18;;;27.45;;
26504;SDS011;19493;48.042;7.584;2024-01-11T02:43:57;125.78;;;28.33;;
26504;SDS011;19493;48.042;7.584;2024-01-11T02:46:23;132.43;;;29.42;;
26504;SDS011;19493;48.042;7.584;2024-01-11T02:48:49;142.93;;;29.02;;
26504;SDS011;19493;48.042;7.584;2024-01-11T02:51:15;135.93;;;30.27;;
26504;SDS011;19493;48.042;7.584;2024-01-11T02:53:40;153.75;;;29.38;;
26504;SDS011;19493;48.042;7.584;2024-01-11T02:56:06;135.70;;;29.23;;
26504;SDS011;19493;48.042;7.584;2024-01-11T02:58:31;142.43;;;30.63;;
26504;SDS011;19493;48.042;7.584;2024-01-11T03:00:57;124.00;;;31.27;;
26504;SDS011;19493;48.042;7.584;2024-01-11T03:03:22;130.43;;;28.20;;
26504;SDS011;19493;48.042;7.584;2024-01-11T03:05:48;119.20;;;30.38;;
26504;SDS011;19493;48.042;7.584;2024-01-11T03:08:13;143.70;;;29.30;;
26504;SDS011;19493;48.042;7.584;2024-01-11T03:10:39;118.57;;;29.98;;
26504;SDS011;19493;48.042;7.584;2024-01-11T03:13:05;119.22;;;30.23;;
26504;SDS011;19493;48.042;7.584;2024-01-11T03:15:32;158.30;;;32.50;;
26504;SDS011;19493;48.042;7.584;2024-01-11T03:17:57;120.85;;;29.55;;
26504;SDS011;19493;48.042;7.584;2024-01-11T03:20:23;137.95;;;29.00;;
26504;SDS011;19493;48.042;7.584;2024-01-11T03:22:50;131.77;;;31.88;;
26504;SDS011;19493;48.042;7.584;2024-01-11T03:25:17;131.63;;;29.50;;
26504;SDS011;19493;48.042;7.584;2024-01-11T03:27:43;123.03;;;28.35;;
26504;SDS011;19493;48.042;7.584;2024-01-11T03:30:08;154.02;;;31.52;;
26504;SDS011;19493;48.042;7.584;2024-01-11T03:32:34;141.32;;;29.63;;
26504;SDS011;19493;48.042;7.584;2024-01-11T03:35:00;145.20;;;32.03;;
26504;SDS011;19493;48.042;7.584;2024-01-11T03:37:25;132.32;;;29.13;;
26504;SDS011;19493;48.042;7.584;2024-01-11T03:39:51;129.90;;;32.33;;
26504;SDS011;19493;48.042;7.584;2024-01-11T03:42:16;136.95;;;30.45;;
26504;SDS011;19493;48.042;7.584;2024-01-11T03:44:42;163.77;;;30.92;;
26504;SDS011;19493;48.042;7.584;2024-01-11T03:47:08;145.00;;;28.88;;
26504;SDS011;19493;48.042;7.584;2024-01-11T03:49:33;138.25;;;30.80;;
26504;SDS011;19493;48.042;7.584;2024-01-11T03:51:59;142.15;;;28.42;;
26504;SDS011;19493;48.042;7.584;2024-01-11T03:54:24;136.48;;;29.95;;
26504;SDS011;19493;48.042;7.584;2024-01-11T03:56:50;155.55;;;31.73;;
26504;SDS011;19493;48.042;7.584;2024-01-11T03:59:15;126.63;;;28.33;;
26504;SDS011;19493;48.042;7.584;2024-01-11T04:01:41;131.70;;;28.77;;
26504;SDS011;19493;48.042;7.584;2024-01-11T04:04:07;122.13;;;28.17;;
26504;SDS011;19493;48.042;7.584;2024-01-11T04:06:33;135.80;;;27.95;;
26504;SDS011;19493;48.042;7.584;2024-01-11T04:08:58;121.97;;;28.10;;
26504;SDS011;19493;48.042;7.584;2024-01-11T04:11:27;139.02;;;30.40;;
26504;SDS011;19493;48.042;7.584;2024-01-11T04:13:53;113.30;;;27.92;;
26504;SDS011;19493;48.042;7.584;2024-01-11T04:16:18;147.27;;;30.40;;
26504;SDS011;19493;48.042;7.584;2024-01-11T04:18:44;129.15;;;28.45;;
26504;SDS011;19493;48.042;7.584;2024-01-11T04:21:20;140.95;;;31.30;;
26504;SDS011;19493;48.042;7.584;2024-01-11T04:23:47;126.32;;;29.35;;
26504;SDS011;19493;48.042;7.584;2024-01-11T04:26:12;127.38;;;28.42;;
26504;SDS011;19493;48.042;7.584;2024-01-11T04:28:38;120.13;;;27.77;;
26504;SDS011;19493;48.042;7.584;2024-01-11T04:31:03;126.25;;;30.35;;
26504;SDS011;19493;48.042;7.584;2024-01-11T04:33:29;112.47;;;26.27;;
26504;SDS011;19493;48.042;7.584;2024-01-11T04:35:54;128.32;;;26.88;;
26504;SDS011;19493;48.042;7.584;2024-01-11T04:38:20;129.93;;;28.30;;
26504;SDS011;19493;48.042;7.584;2024-01-11T04:40:45;132.30;;;29.63;;
26504;SDS011;19493;48.042;7.584;2024-01-11T04:43:11;124.15;;;26.60;;
26504;SDS011;19493;48.042;7.584;2024-01-11T04:45:36;136.07;;;28.88;;
26504;SDS011;19493;48.042;7.584;2024-01-11T04:48:02;132.43;;;27.38;;
26504;SDS011;19493;48.042;7.584;2024-01-11T04:50:28;120.30;;;27.17;;
26504;SDS011;19493;48.042;7.584;2024-01-11T04:52:53;125.38;;;26.50;;
26504;SDS011;19493;48.042;7.584;2024-01-11T04:55:19;152.02;;;31.08;;
26504;SDS011;19493;48.042;7.584;2024-01-11T04:57:44;135.48;;;28.95;;
26504;SDS011;19493;48.042;7.584;2024-01-11T05:00:10;135.35;;;29.60;;
26504;SDS011;19493;48.042;7.584;2024-01-11T05:02:36;122.82;;;29.40;;
26504;SDS011;19493;48.042;7.584;2024-01-11T05:05:01;114.53;;;26.88;;
26504;SDS011;19493;48.042;7.584;2024-01-11T05:07:27;133.63;;;28.25;;
26504;SDS011;19493;48.042;7.584;2024-01-11T05:09:53;148.50;;;31.42;;
26504;SDS011;19493;48.042;7.584;2024-01-11T05:12:18;160.82;;;32.15;;
26504;SDS011;19493;48.042;7.584;2024-01-11T05:14:44;146.25;;;32.05;;
26504;SDS011;19493;48.042;7.584;2024-01-11T05:17:09;164.00;;;31.75;;
26504;SDS011;19493;48.042;7.584;2024-01-11T05:19:35;157.60;;;32.97;;
26504;SDS011;19493;48.042;7.584;2024-01-11T05:22:00;151.90;;;31.77;;
26504;SDS011;19493;48.042;7.584;2024-01-11T05:24:26;140.60;;;31.60;;
26504;SDS011;19493;48.042;7.584;2024-01-11T05:26:51;172.48;;;34.67;;
26504;SDS011;19493;48.042;7.584;2024-01-11T05:29:17;175.18;;;34.38;;
26504;SDS011;19493;48.042;7.584;2024-01-11T05:31:42;170.95;;;33.90;;
26504;SDS011;19493;48.042;7.584;2024-01-11T05:34:08;144.32;;;31.83;;
26504;SDS011;19493;48.042;7.584;2024-01-11T05:36:37;144.07;;;32.38;;
26504;SDS011;19493;48.042;7.584;2024-01-11T05:39:02;144.85;;;33.05;;
26504;SDS011;19493;48.042;7.584;2024-01-11T05:41:28;131.30;;;32.72;;
26504;SDS011;19493;48.042;7.584;2024-01-11T05:43:53;169.98;;;33.55;;
26504;SDS011;19493;48.042;7.584;2024-01-11T05:46:19;159.38;;;35.30;;
26504;SDS011;19493;48.042;7.584;2024-01-11T05:48:45;144.50;;;34.00;;
26504;SDS011;19493;48.042;7.584;2024-01-11T05:51:10;147.95;;;33.10;;
26504;SDS011;19493;48.042;7.584;2024-01-11T05:53:36;149.77;;;35.08;;
26504;SDS011;19493;48.042;7.584;2024-01-11T05:56:07;148.98;;;32.47;;
26504;SDS011;19493;48.042;7.584;2024-01-11T05:58:33;166.25;;;36.88;;
26504;SDS011;19493;48.042;7.584;2024-01-11T06:00:59;177.73;;;35.33;;
26504;SDS011;19493;48.042;7.584;2024-01-11T06:03:24;156.05;;;36.83;;
26504;SDS011;19493;48.042;7.584;2024-01-11T06:05:50;133.20;;;34.35;;
26504;SDS011;19493;48.042;7.584;2024-01-11T06:08:15;147.32;;;34.58;;
26504;SDS011;19493;48.042;7.584;2024-01-11T06:10:41;181.43;;;36.95;;
26504;SDS011;19493;48.042;7.584;2024-01-11T06:13:07;156.77;;;35.20;;
26504;SDS011;19493;48.042;7.584;2024-01-11T06:15:34;153.25;;;33.58;;
26504;SDS011;19493;48.042;7.584;2024-01-11T06:18:00;159.13;;;33.80;;
26504;SDS011;19493;48.042;7.584;2024-01-11T06:20:25;168.50;;;35.53;;
26504;SDS011;19493;48.042;7.584;2024-01-11T06:22:51;177.70;;;35.92;;
26504;SDS011;19493;48.042;7.584;2024-01-11T06:25:16;157.85;;;35.35;;
26504;SDS011;19493;48.042;7.584;2024-01-11T06:27:43;182.77;;;34.67;;
26504;SDS011;19493;48.042;7.584;2024-01-11T06:30:09;191.90;;;44.90;;
26504;SDS011;19493;48.042;7.584;2024-01-11T06:32:35;215.40;;;43.63;;
26504;SDS011;19493;48.042;7.584;2024-01-11T06:35:00;187.40;;;42.70;;
26504;SDS011;19493;48.042;7.584;2024-01-11T06:37:27;234.68;;;45.72;;
26504;SDS011;19493;48.042;7.584;2024-01-11T06:39:52;207.20;;;43.97;;
26504;SDS011;19493;48.042;7.584;2024-01-11T06:42:18;216.57;;;42.90;;
26504;SDS011;19493;48.042;7.584;2024-01-11T06:44:44;201.35;;;44.22;;
26504;SDS011;19493;48.042;7.584;2024-01-11T06:47:09;215.52;;;46.78;;
26504;SDS011;19493;48.042;7.584;2024-01-11T06:49:38;186.38;;;42.00;;
26504;SDS011;19493;48.042;7.584;2024-01-11T06:52:04;199.93;;;40.28;;
26504;SDS011;19493;48.042;7.584;2024-01-11T06:54:30;188.70;;;40.10;;
26504;SDS011;19493;48.042;7.584;2024-01-11T06:56:57;151.18;;;38.67;;
26504;SDS011;19493;48.042;7.584;2024-01-11T06:59:22;176.40;;;40.47;;
26504;SDS011;19493;48.042;7.584;2024-01-11T07:01:48;159.25;;;38.50;;
26504;SDS011;19493;48.042;7.584;2024-01-11T07:04:14;169.18;;;36.05;;
26504;SDS011;19493;48.042;7.584;2024-01-11T07:06:40;164.60;;;35.55;;
26504;SDS011;19493;48.042;7.584;2024-01-11T07:09:05;149.27;;;36.13;;
26504;SDS011;19493;48.042;7.584;2024-01-11T07:11:31;168.93;;;37.70;;
26504;SDS011;19493;48.042;7.584;2024-01-11T07:13:57;165.35;;;37.45;;
26504;SDS011;19493;48.042;7.584;2024-01-11T07:16:23;310.35;;;68.90;;
26504;SDS011;19493;48.042;7.584;2024-01-11T07:18:48;166.15;;;37.03;;
26504;SDS011;19493;48.042;7.584;2024-01-11T07:21:20;147.18;;;34.35;;
26504;SDS011;19493;48.042;7.584;2024-01-11T07:23:58;143.07;;;33.05;;
26504;SDS011;19493;48.042;7.584;2024-01-11T07:26:24;138.57;;;32.03;;
26504;SDS011;19493;48.042;7.584;2024-01-11T07:28:50;161.43;;;32.80;;
26504;SDS011;19493;48.042;7.584;2024-01-11T07:31:16;152.25;;;32.53;;
26504;SDS011;19493;48.042;7.584;2024-01-11T07:33:42;153.70;;;33.13;;
26504;SDS011;19493;48.042;7.584;2024-01-11T07:36:08;145.95;;;30.23;;
26504;SDS011;19493;48.042;7.584;2024-01-11T07:38:34;159.85;;;32.53;;
26504;SDS011;19493;48.042;7.584;2024-01-11T07:41:00;151.57;;;33.35;;
26504;SDS011;19493;48.042;7.584;2024-01-11T07:43:26;159.25;;;35.50;;
26504;SDS011;19493;48.042;7.584;2024-01-11T07:45:53;131.45;;;32.83;;
26504;SDS011;19493;48.042;7.584;2024-01-11T07:48:19;139.15;;;30.00;;
26504;SDS011;19493;48.042;7.584;2024-01-11T07:50:45;190.05;;;38.53;;
26504;SDS011;19493;48.042;7.584;2024-01-11T07:53:10;175.05;;;36.22;;
26504;SDS011;19493;48.042;7.584;2024-01-11T07:55:36;126.85;;;30.67;;
26504;SDS011;19493;48.042;7.584;2024-01-11T07:58:03;144.43;;;32.13;;
26504;SDS011;19493;48.042;7.584;2024-01-11T08:00:29;165.13;;;33.13;;
26504;SDS011;19493;48.042;7.584;2024-01-11T08:02:54;138.77;;;32.05;;
26504;SDS011;19493;48.042;7.584;2024-01-11T08:05:20;156.05;;;33.50;;
26504;SDS011;19493;48.042;7.584;2024-01-11T08:07:45;180.25;;;35.38;;
26504;SDS011;19493;48.042;7.584;2024-01-11T08:10:11;179.18;;;36.17;;
26504;SDS011;19493;48.042;7.584;2024-01-11T08:12:36;144.95;;;33.78;;
26504;SDS011;19493;48.042;7.584;2024-01-11T08:15:02;175.70;;;40.67;;
26504;SDS011;19493;48.042;7.584;2024-01-11T08:17:28;156.43;;;33.13;;
26504;SDS011;19493;48.042;7.584;2024-01-11T08:19:54;147.35;;;32.55;;
26504;SDS011;19493;48.042;7.584;2024-01-11T08:22:21;145.43;;;31.65;;
26504;SDS011;19493;48.042;7.584;2024-01-11T08:24:47;164.40;;;34.72;;
26504;SDS011;19493;48.042;7.584;2024-01-11T08:27:13;144.48;;;35.08;;
26504;SDS011;19493;48.042;7.584;2024-01-11T08:29:43;159.55;;;35.25;;
26504;SDS011;19493;48.042;7.584;2024-01-11T08:32:08;171.43;;;38.65;;
26504;SDS011;19493;48.042;7.584;2024-01-11T08:34:34;160.95;;;37.03;;
26504;SDS011;19493;48.042;7.584;2024-01-11T08:36:59;163.23;;;39.10;;
26504;SDS011;19493;48.042;7.584;2024-01-11T08:39:25;182.23;;;38.42;;
26504;SDS011;19493;48.042;7.584;2024-01-11T08:41:51;161.95;;;36.85;;
26504;SDS011;19493;48.042;7.584;2024-01-11T08:44:17;174.15;;;37.92;;
26504;SDS011;19493;48.042;7.584;2024-01-11T08:46:43;229.63;;;46.78;;
26504;SDS011;19493;48.042;7.584;2024-01-11T08:49:09;410.33;;;83.68;;
26504;SDS011;19493;48.042;7.584;2024-01-11T08:51:34;215.98;;;44.58;;
26504;SDS011;19493;48.042;7.584;2024-01-11T08:54:00;538.70;;;109.47;;
26504;SDS011;19493;48.042;7.584;2024-01-11T08:56:26;270.50;;;54.25;;
26504;SDS011;19493;48.042;7.584;2024-01-11T08:58:53;215.88;;;44.85;;
26504;SDS011;19493;48.042;7.584;2024-01-11T09:01:18;161.98;;;37.88;;
26504;SDS011;19493;48.042;7.584;2024-01-11T09:03:44;171.07;;;35.33;;
26504;SDS011;19493;48.042;7.584;2024-01-11T09:06:10;113.82;;;28.73;;
26504;SDS011;19493;48.042;7.584;2024-01-11T09:08:36;133.27;;;30.42;;
26504;SDS011;19493;48.042;7.584;2024-01-11T09:11:01;124.65;;;28.77;;
26504;SDS011;19493;48.042;7.584;2024-01-11T09:13:28;104.60;;;28.70;;
26504;SDS011;19493;48.042;7.584;2024-01-11T09:15:54;115.65;;;29.17;;
26504;SDS011;19493;48.042;7.584;2024-01-11T09:18:20;142.52;;;33.55;;
26504;SDS011;19493;48.042;7.584;2024-01-11T09:20:46;126.30;;;30.15;;
26504;SDS011;19493;48.042;7.584;2024-01-11T09:23:12;111.72;;;28.92;;
26504;SDS011;19493;48.042;7.584;2024-01-11T09:25:38;121.95;;;28.48;;
26504;SDS011;19493;48.042;7.584;2024-01-11T09:28:04;100.88;;;26.92;;
26504;SDS011;19493;48.042;7.584;2024-01-11T09:30:30;115.15;;;27.27;;
26504;SDS011;19493;48.042;7.584;2024-01-11T09:32:56;93.15;;;25.50;;
26504;SDS011;19493;48.042;7.584;2024-01-11T09:35:22;99.13;;;26.85;;
26504;SDS011;19493;48.042;7.584;2024-01-11T09:37:51;112.63;;;25.95;;
26504;SDS011;19493;48.042;7.584;2024-01-11T09:40:17;104.93;;;28.05;;
26504;SDS011;19493;48.042;7.584;2024-01-11T09:42:43;102.38;;;28.08;;
26504;SDS011;19493;48.042;7.584;2024-01-11T09:45:12;111.97;;;27.42;;
26504;SDS011;19493;48.042;7.584;2024-01-11T09:47:39;85.63;;;25.15;;
26504;SDS011;19493;48.042;7.584;2024-01-11T09:50:05;113.00;;;26.27;;
26504;SDS011;19493;48.042;7.584;2024-01-11T09:52:32;107.75;;;27.10;;
26504;SDS011;19493;48.042;7.584;2024-01-11T09:54:58;97.43;;;24.73;;
26504;SDS011;19493;48.042;7.584;2024-01-11T09:57:26;85.22;;;25.45;;
26504;SDS011;19493;48.042;7.584;2024-01-11T09:59:56;80.97;;;23.75;;
26504;SDS011;19493;48.042;7.584;2024-01-11T10:02:23;93.30;;;25.23;;
26504;SDS011;19493;48.042;7.584;2024-01-11T10:04:51;99.80;;;24.50;;
26504;SDS011;19493;48.042;7.584;2024-01-11T10:07:18;93.47;;;26.45;;
26504;SDS011;19493;48.042;7.584;2024-01-11T10:09:46;101.88;;;27.55;;
26504;SDS011;19493;48.042;7.584;2024-01-11T10:12:12;94.20;;;24.02;;
26504;SDS011;19493;48.042;7.584;2024-01-11T10:14:38;106.18;;;27.65;;
26504;SDS011;19493;48.042;7.584;2024-01-11T10:17:04;101.15;;;25.42;;
26504;SDS011;19493;48.042;7.584;2024-01-11T10:19:30;95.25;;;27.45;;
26504;SDS011;19493;48.042;7.584;2024-01-11T10:21:56;95.20;;;25.25;;
26504;SDS011;19493;48.042;7.584;2024-01-11T10:24:23;88.03;;;25.17;;
26504;SDS011;19493;48.042;7.584;2024-01-11T10:26:51;112.82;;;27.60;;
26504;SDS011;19493;48.042;7.584;2024-01-11T10:29:20;107.20;;;29.98;;
26504;SDS011;19493;48.042;7.584;2024-01-11T10:31:47;94.18;;;27.05;;
26504;SDS011;19493;48.042;7.584;2024-01-11T10:34:12;108.57;;;27.42;;
26504;SDS011;19493;48.042;7.584;2024-01-11T10:36:38;99.53;;;27.75;;
26504;SDS011;19493;48.042;7.584;2024-01-11T10:39:05;100.63;;;27.42;;
26504;SDS011;19493;48.042;7.584;2024-01-11T10:41:38;93.20;;;28.45;;
26504;SDS011;19493;48.042;7.584;2024-01-11T10:44:07;111.68;;;28.65;;
26504;SDS011;19493;48.042;7.584;2024-01-11T10:46:47;83.63;;;24.95;;
26504;SDS011;19493;48.042;7.584;2024-01-11T10:49:17;95.28;;;26.40;;
26504;SDS011;19493;48.042;7.584;2024-01-11T10:51:59;100.65;;;27.40;;
26504;SDS011;19493;48.042;7.584;2024-01-11T10:54:27;99.13;;;27.10;;
26504;SDS011;19493;48.042;7.584;2024-01-11T10:56:55;85.57;;;26.90;;
26504;SDS011;19493;48.042;7.584;2024-01-11T10:59:24;82.75;;;26.88;;
26504;SDS011;19493;48.042;7.584;2024-01-11T11:01:54;94.10;;;27.10;;
26504;SDS011;19493;48.042;7.584;2024-01-11T11:04:23;94.65;;;26.17;;
26504;SDS011;19493;48.042;7.584;2024-01-11T11:06:54;101.22;;;26.83;;
26504;SDS011;19493;48.042;7.584;2024-01-11T11:09:24;96.72;;;26.88;;
26504;SDS011;19493;48.042;7.584;2024-01-11T11:11:50;89.70;;;27.48;;
26504;SDS011;19493;48.042;7.584;2024-01-11T11:14:21;111.68;;;29.88;;
26504;SDS011;19493;48.042;7.584;2024-01-11T11:16:47;100.53;;;27.48;;
26504;SDS011;19493;48.042;7.584;2024-01-11T11:19:13;83.63;;;26.00;;
26504;SDS011;19493;48.042;7.584;2024-01-11T11:21:43;101.50;;;28.75;;
26504;SDS011;19493;48.042;7.584;2024-01-11T11:24:09;85.47;;;26.50;;
26504;SDS011;19493;48.042;7.584;2024-01-11T11:26:38;88.18;;;26.98;;
26504;SDS011;19493;48.042;7.584;2024-01-11T11:29:04;96.50;;;26.42;;
26504;SDS011;19493;48.042;7.584;2024-01-11T11:31:44;96.80;;;29.58;;
26504;SDS011;19493;48.042;7.584;2024-01-11T11:34:12;102.03;;;27.58;;
26504;SDS011;19493;48.042;7.584;2024-01-11T11:36:39;96.32;;;27.67;;
26504;SDS011;19493;48.042;7.584;2024-01-11T11:39:09;97.47;;;28.02;;
26504;SDS011;19493;48.042;7.584;2024-01-11T11:41:39;100.38;;;29.30;;
26504;SDS011;19493;48.042;7.584;2024-01-11T11:44:05;90.95;;;28.88;;
26504;SDS011;19493;48.042;7.584;2024-01-11T11:46:31;91.65;;;27.48;;
26504;SDS011;19493;48.042;7.584;2024-01-11T11:48:58;104.75;;;28.55;;
26504;SDS011;19493;48.042;7.584;2024-01-11T11:51:24;90.38;;;29.40;;
26504;SDS011;19493;48.042;7.584;2024-01-11T11:53:51;98.30;;;28.42;;
26504;SDS011;19493;48.042;7.584;2024-01-11T11:56:18;110.10;;;27.50;;
26504;SDS011;19493;48.042;7.584;2024-01-11T11:58:45;113.30;;;29.77;;
26504;SDS011;19493;48.042;7.584;2024-01-11T12:01:11;102.40;;;29.17;;
26504;SDS011;19493;48.042;7.584;2024-01-11T12:03:40;111.80;;;29.50;;
26504;SDS011;19493;48.042;7.584;2024-01-11T12:06:08;108.47;;;29.80;;
26504;SDS011;19493;48.042;7.584;2024-01-11T12:08:35;107.47;;;29.73;;
26504;SDS011;19493;48.042;7.584;2024-01-11T12:11:01;111.03;;;29.27;;
26504;SDS011;19493;48.042;7.584;2024-01-11T12:13:28;98.13;;;29.25;;
26504;SDS011;19493;48.042;7.584;2024-01-11T12:15:56;121.47;;;30.33;;
26504;SDS011;19493;48.042;7.584;2024-01-11T12:18:22;126.07;;;33.40;;
26504;SDS011;19493;48.042;7.584;2024-01-11T12:20:47;105.53;;;28.80;;
26504;SDS011;19493;48.042;7.584;2024-01-11T12:23:13;95.95;;;29.67;;
26504;SDS011;19493;48.042;7.584;2024-01-11T12:25:42;120.63;;;31.00;;
26504;SDS011;19493;48.042;7.584;2024-01-11T12:28:08;112.18;;;30.23;;
26504;SDS011;19493;48.042;7.584;2024-01-11T12:30:34;116.93;;;29.42;;
26504;SDS011;19493;48.042;7.584;2024-01-11T12:32:59;105.72;;;28.67;;
26504;SDS011;19493;48.042;7.584;2024-01-11T12:35:26;103.03;;;29.02;;
26504;SDS011;19493;48.042;7.584;2024-01-11T12:37:55;110.07;;;30.00;;
26504;SDS011;19493;48.042;7.584;2024-01-11T12:40:25;110.40;;;30.58;;
26504;SDS011;19493;48.042;7.584;2024-01-11T12:42:52;110.95;;;29.90;;
26504;SDS011;19493;48.042;7.584;2024-01-11T12:45:18;104.95;;;29.63;;
26504;SDS011;19493;48.042;7.584;2024-01-11T12:47:45;118.80;;;29.10;;
26504;SDS011;19493;48.042;7.584;2024-01-11T12:50:11;121.13;;;31.42;;
26504;SDS011;19493;48.042;7.584;2024-01-11T12:52:39;108.35;;;30.17;;
26504;SDS011;19493;48.042;7.584;2024-01-11T12:55:07;118.22;;;32.67;;
26504;SDS011;19493;48.042;7.584;2024-01-11T12:57:35;120.18;;;31.58;;
26504;SDS011;19493;48.042;7.584;2024-01-11T13:00:13;113.68;;;29.80;;
26504;SDS011;19493;48.042;7.584;2024-01-11T13:02:41;117.88;;;29.73;;
26504;SDS011;19493;48.042;7.584;2024-01-11T13:05:09;138.25;;;30.45;;
26504;SDS011;19493;48.042;7.584;2024-01-11T13:07:36;117.35;;;32.03;;
26504;SDS011;19493;48.042;7.584;2024-01-11T13:10:02;119.13;;;29.65;;
26504;SDS011;19493;48.042;7.584;2024-01-11T13:12:29;112.63;;;31.33;;
26504;SDS011;19493;48.042;7.584;2024-01-11T13:14:55;116.13;;;30.90;;
26504;SDS011;19493;48.042;7.584;2024-01-11T13:17:21;119.78;;;30.27;;
26504;SDS011;19493;48.042;7.584;2024-01-11T13:19:46;136.55;;;32.85;;
26504;SDS011;19493;48.042;7.584;2024-01-11T13:22:12;143.43;;;33.20;;
26504;SDS011;19493;48.042;7.584;2024-01-11T13:24:38;132.20;;;31.63;;
26504;SDS011;19493;48.042;7.584;2024-01-11T13:27:03;141.40;;;33.53;;
26504;SDS011;19493;48.042;7.584;2024-01-11T13:29:29;124.35;;;29.38;;
26504;SDS011;19493;48.042;7.584;2024-01-11T13:31:55;126.03;;;34.10;;
26504;SDS011;19493;48.042;7.584;2024-01-11T13:34:20;136.40;;;34.85;;
26504;SDS011;19493;48.042;7.584;2024-01-11T13:36:46;137.00;;;33.45;;
26504;SDS011;19493;48.042;7.584;2024-01-11T13:39:11;118.30;;;32.60;;
26504;SDS011;19493;48.042;7.584;2024-01-11T13:41:37;141.85;;;34.70;;
26504;SDS011;19493;48.042;7.584;2024-01-11T13:44:02;142.18;;;34.65;;
26504;SDS011;19493;48.042;7.584;2024-01-11T13:46:30;135.23;;;33.22;;
26504;SDS011;19493;48.042;7.584;2024-01-11T13:48:57;114.75;;;31.60;;
26504;SDS011;19493;48.042;7.584;2024-01-11T13:51:23;150.00;;;35.30;;
26504;SDS011;19493;48.042;7.584;2024-01-11T13:53:48;143.63;;;32.10;;
26504;SDS011;19493;48.042;7.584;2024-01-11T13:56:14;136.85;;;32.70;;
26504;SDS011;19493;48.042;7.584;2024-01-11T13:58:39;130.82;;;31.80;;
26504;SDS011;19493;48.042;7.584;2024-01-11T14:01:05;152.30;;;34.47;;
26504;SDS011;19493;48.042;7.584;2024-01-11T14:03:32;129.90;;;31.05;;
26504;SDS011;19493;48.042;7.584;2024-01-11T14:05:58;131.98;;;33.75;;